createdAt,value
2022-08-11T00:02:19.244Z,47.90
2022-08-11T00:07:18.068Z,48.10
2022-08-11T00:12:17.801Z,48.40
2022-08-11T00:17:17.176Z,48.60
2022-08-11T00:22:16.199Z,48.90
2022-08-11T00:27:15.162Z,49.10
2022-08-11T00:32:14.327Z,49.40
2022-08-11T00:37:13.415Z,49.50
2022-08-11T00:42:12.451Z,49.60
2022-08-11T00:47:11.379Z,49.80
2022-08-11T00:52:10.375Z,50.10
2022-08-11T00:57:09.385Z,50.30
2022-08-11T01:02:10.230Z,50.70
2022-08-11T01:07:09.350Z,50.90
2022-08-11T01:12:08.261Z,51.10
2022-08-11T01:17:08.270Z,51.10
2022-08-11T01:22:09.431Z,51.30
2022-08-11T01:27:18.804Z,50.90
2022-08-11T01:32:09.410Z,50.80
2022-08-11T01:37:08.412Z,50.40
2022-08-11T01:42:25.519Z,50.20
2022-08-11T01:47:52.625Z,50.00
2022-08-11T01:52:44.822Z,49.90
2022-08-11T01:57:44.491Z,49.70
2022-08-11T02:02:47.187Z,49.40
2022-08-11T02:07:46.320Z,49.20
2022-08-11T02:12:52.127Z,48.90
2022-08-11T02:17:49.479Z,48.60
2022-08-11T02:23:08.442Z,48.30
2022-08-11T02:28:08.422Z,48.00
2022-08-11T02:33:27.419Z,47.80
2022-08-11T02:38:26.469Z,47.30
2022-08-11T02:43:25.295Z,47.30
2022-08-11T02:48:42.473Z,47.20
2022-08-11T02:53:41.322Z,47.30
2022-08-11T02:58:40.446Z,47.20
2022-08-11T03:03:40.377Z,47.10
2022-08-11T03:08:39.384Z,47.20
2022-08-11T03:13:56.560Z,47.10
2022-08-11T03:18:57.538Z,47.20
2022-08-11T03:23:56.483Z,47.30
2022-08-11T03:28:55.514Z,47.40
2022-08-11T03:34:06.828Z,47.50
2022-08-11T03:39:04.783Z,47.60
2022-08-11T03:44:04.071Z,48.30
2022-08-11T03:49:03.441Z,48.90
2022-08-11T03:54:04.487Z,49.40
2022-08-11T03:59:03.329Z,50.10
2022-08-11T04:04:02.519Z,50.40
2022-08-11T04:09:01.578Z,50.70
2022-08-11T04:14:02.979Z,51.00
2022-08-11T04:19:02.618Z,51.40
2022-08-11T04:24:36.727Z,51.80
2022-08-11T04:29:09.520Z,52.20
2022-08-11T04:34:07.503Z,52.70
2022-08-11T04:39:06.434Z,53.00
2022-08-11T04:44:06.777Z,53.30
2022-08-11T04:49:33.619Z,53.60
2022-08-11T04:54:50.743Z,53.70
2022-08-11T05:00:07.668Z,54.20
2022-08-11T05:05:24.513Z,54.90
2022-08-11T05:10:23.454Z,55.20
2022-08-11T05:15:42.737Z,55.30
2022-08-11T05:21:04.339Z,55.20
2022-08-11T05:26:47.718Z,55.10
2022-08-11T05:31:37.422Z,54.60
2022-08-11T05:36:36.526Z,54.20
2022-08-11T05:41:53.639Z,54.20
2022-08-11T05:47:10.791Z,54.10
2022-08-11T05:52:31.903Z,54.40
2022-08-11T05:57:50.041Z,54.80
2022-08-11T06:02:31.640Z,54.80
2022-08-11T06:07:30.519Z,54.70
2022-08-11T06:12:32.016Z,54.70
2022-08-11T06:17:38.486Z,54.80
2022-08-11T06:22:32.605Z,55.10
2022-08-11T06:27:31.574Z,55.20
2022-08-11T06:32:30.596Z,55.00
2022-08-11T06:37:32.165Z,54.80
2022-08-11T06:42:32.062Z,54.70
2022-08-11T06:47:31.689Z,54.50
2022-08-11T06:52:34.306Z,53.60
2022-08-11T06:57:49.556Z,52.30
2022-08-11T07:02:48.613Z,51.00
2022-08-11T07:08:33.192Z,50.60
2022-08-11T07:13:45.128Z,49.30
2022-08-11T07:18:43.701Z,48.30
2022-08-11T07:24:00.673Z,48.20
2022-08-11T07:28:59.482Z,48.20
2022-08-11T07:34:08.017Z,47.70
2022-08-11T07:38:59.531Z,47.20
2022-08-11T07:44:01.818Z,46.80
2022-08-11T07:49:18.596Z,46.40
2022-08-11T07:54:17.724Z,45.70
2022-08-11T07:59:59.912Z,45.20
2022-08-11T08:04:55.646Z,44.40
2022-08-11T08:10:14.277Z,44.20
2022-08-11T08:15:31.875Z,43.20
2022-08-11T08:20:30.644Z,43.40
2022-08-11T08:25:29.444Z,43.30
2022-08-11T08:30:46.660Z,42.80
2022-08-11T08:35:53.988Z,42.40
2022-08-11T08:40:48.132Z,42.00
2022-08-11T08:45:47.508Z,42.20
2022-08-11T08:51:04.734Z,42.00
2022-08-11T08:56:03.561Z,41.40
2022-08-11T09:01:02.809Z,39.80
2022-08-11T09:06:01.491Z,40.60
2022-08-11T09:11:18.549Z,39.50
2022-08-11T09:16:17.626Z,38.80
2022-08-11T09:21:34.202Z,38.70
2022-08-11T09:26:35.672Z,38.90
2022-08-11T09:31:39.817Z,38.40
2022-08-11T09:36:53.952Z,37.10
2022-08-11T09:42:01.729Z,37.80
2022-08-11T09:46:59.356Z,37.80
2022-08-11T09:52:04.882Z,36.50
2022-08-11T09:57:17.817Z,36.70
2022-08-11T10:02:18.090Z,36.50
2022-08-11T10:07:17.787Z,36.30
2022-08-11T10:12:16.616Z,35.70
2022-08-11T10:17:15.797Z,35.50
2022-08-11T10:22:33.148Z,35.20
2022-08-11T10:28:16.984Z,33.70
2022-08-11T10:32:58.716Z,33.50
2022-08-11T10:38:15.640Z,34.40
2022-08-11T10:43:07.059Z,33.60
2022-08-11T10:48:05.772Z,34.00
2022-08-11T10:53:22.861Z,33.10
2022-08-11T10:58:39.871Z,32.70
2022-08-11T11:03:38.588Z,32.00
2022-08-11T11:08:52.919Z,31.00
2022-08-11T11:14:09.981Z,31.40
2022-08-11T11:19:08.667Z,31.80
2022-08-11T11:24:09.967Z,32.00
2022-08-11T11:29:08.733Z,31.70
2022-08-11T11:34:12.833Z,30.90
2022-08-11T11:39:08.825Z,31.50
2022-08-11T11:44:07.678Z,31.40
2022-08-11T11:49:15.821Z,31.50
2022-08-11T11:54:10.673Z,30.80
2022-08-11T11:59:28.815Z,30.40
2022-08-11T12:04:27.802Z,30.10
2022-08-11T12:09:26.890Z,31.00
2022-08-11T12:14:27.542Z,30.40
2022-08-11T12:19:28.163Z,30.10
2022-08-11T12:24:45.159Z,30.50
2022-08-11T12:29:44.877Z,30.10
2022-08-11T12:34:43.679Z,30.20
2022-08-11T12:40:15.623Z,30.10
2022-08-11T12:45:22.272Z,30.00
2022-08-11T12:50:39.049Z,30.00
2022-08-11T12:56:07.550Z,30.00
2022-08-11T13:01:16.038Z,30.00
2022-08-11T13:06:14.844Z,30.30
2022-08-11T13:11:56.428Z,29.70
2022-08-11T13:16:34.607Z,30.00
2022-08-11T13:21:33.666Z,29.70
2022-08-11T13:26:43.313Z,29.60
2022-08-11T13:31:33.735Z,29.60
2022-08-11T13:36:32.743Z,29.90
2022-08-11T13:41:38.823Z,29.80
2022-08-11T13:46:37.771Z,29.80
2022-08-11T13:51:39.707Z,29.90
2022-08-11T13:56:39.558Z,29.50
2022-08-11T14:02:20.677Z,28.90
2022-08-11T14:06:40.782Z,29.30
2022-08-11T14:12:23.070Z,28.80
2022-08-11T14:16:59.866Z,28.90
2022-08-11T14:22:08.471Z,29.40
2022-08-11T14:27:07.954Z,29.20
2022-08-11T14:32:08.845Z,29.50
2022-08-11T14:37:07.790Z,29.30
2022-08-11T14:42:24.975Z,28.90
2022-08-11T14:47:25.623Z,29.10
2022-08-11T14:52:24.883Z,29.10
2022-08-11T14:57:55.027Z,29.60
2022-08-11T15:02:42.847Z,29.60
2022-08-11T15:07:42.098Z,29.80
2022-08-11T15:12:41.922Z,29.90
2022-08-11T15:17:43.769Z,29.70
2022-08-11T15:23:00.099Z,29.90
2022-08-11T15:28:17.072Z,30.00
2022-08-11T15:33:33.778Z,30.00
2022-08-11T15:38:34.886Z,30.10
2022-08-11T15:43:51.867Z,30.20
2022-08-11T15:48:50.927Z,30.40
2022-08-11T15:53:56.222Z,30.80
2022-08-11T15:59:35.082Z,30.40
2022-08-11T16:04:13.412Z,30.90
2022-08-11T16:09:18.532Z,30.60
2022-08-11T16:14:32.114Z,31.00
2022-08-11T16:19:33.131Z,31.20
2022-08-11T16:27:02.411Z,30.00
2022-08-11T16:29:33.286Z,30.00
2022-08-11T16:34:50.109Z,30.40
2022-08-11T16:39:51.188Z,30.40
2022-08-11T16:45:08.084Z,31.00
2022-08-11T16:50:07.096Z,30.70
2022-08-11T16:55:05.900Z,31.30
2022-08-11T17:00:05.861Z,31.70
2022-08-11T17:05:23.116Z,30.90
2022-08-11T17:10:53.415Z,31.20
2022-08-11T17:15:58.940Z,31.10
2022-08-11T17:20:58.076Z,31.80
2022-08-11T17:25:59.217Z,32.30
2022-08-11T17:31:30.656Z,32.40
2022-08-11T17:36:30.196Z,32.60
2022-08-11T17:41:46.960Z,33.00
2022-08-11T17:47:06.386Z,33.00
2022-08-11T17:52:23.096Z,33.40
2022-08-11T17:57:44.260Z,33.40
2022-08-11T18:02:58.884Z,33.60
2022-08-11T18:08:16.107Z,33.90
2022-08-11T18:13:33.127Z,34.10
2022-08-11T18:18:50.165Z,34.50
2022-08-11T18:24:07.219Z,34.70
2022-08-11T18:29:24.129Z,34.90
2022-08-11T18:34:41.368Z,35.20
2022-08-11T18:40:00.197Z,35.50
2022-08-11T18:45:17.364Z,35.80
2022-08-11T18:50:39.648Z,36.10
2022-08-11T18:55:53.086Z,36.30
2022-08-11T19:01:10.333Z,36.60
2022-08-11T19:06:39.348Z,36.80
2022-08-11T19:11:46.226Z,36.90
2022-08-11T19:17:03.207Z,37.20
2022-08-11T19:22:20.239Z,37.60
2022-08-11T19:27:37.216Z,37.90
2022-08-11T19:32:54.221Z,38.10
2022-08-11T19:38:11.521Z,38.30
2022-08-11T19:43:28.055Z,38.50
2022-08-11T19:48:45.140Z,38.70
2022-08-11T19:54:02.160Z,38.70
2022-08-11T19:59:19.245Z,38.80
2022-08-11T20:04:36.401Z,38.80
2022-08-11T20:10:04.974Z,38.90
2022-08-11T20:15:12.205Z,39.10
2022-08-11T20:20:29.146Z,39.40
2022-08-11T20:25:46.192Z,39.40
2022-08-11T20:31:03.328Z,39.60
2022-08-11T20:36:20.444Z,39.80
2022-08-11T20:41:58.411Z,39.70
2022-08-11T20:46:59.331Z,39.80
2022-08-11T20:52:16.308Z,40.10
2022-08-11T20:58:01.436Z,40.10
2022-08-11T21:02:54.220Z,40.30
2022-08-11T21:08:13.187Z,40.50
2022-08-11T21:13:30.085Z,40.50
2022-08-11T21:18:49.385Z,40.70
2022-08-11T21:24:06.317Z,40.90
2022-08-11T21:29:23.464Z,40.90
2022-08-11T21:34:40.308Z,41.20
2022-08-11T21:39:57.372Z,41.20
2022-08-11T21:45:14.563Z,41.40
2022-08-11T21:50:31.261Z,41.50
2022-08-11T21:55:48.149Z,41.80
2022-08-11T22:01:05.416Z,41.80
2022-08-11T22:06:22.304Z,42.10
2022-08-11T22:11:39.290Z,42.30
2022-08-11T22:16:56.446Z,42.50
2022-08-11T22:22:13.524Z,42.60
2022-08-11T22:27:32.214Z,43.00
2022-08-11T22:32:49.187Z,43.00
2022-08-11T22:38:06.447Z,43.00
2022-08-11T22:43:23.117Z,43.20
2022-08-11T22:48:40.471Z,43.10
2022-08-11T22:53:58.952Z,43.00
2022-08-11T22:59:16.290Z,43.00
2022-08-11T23:04:33.362Z,42.90
2022-08-11T23:09:50.389Z,43.20
2022-08-11T23:15:07.371Z,43.30
2022-08-11T23:20:41.264Z,43.50
2022-08-11T23:25:43.231Z,43.70
2022-08-11T23:31:00.168Z,44.00
2022-08-11T23:36:36.253Z,44.40
2022-08-11T23:41:36.423Z,44.50
2022-08-11T23:46:53.358Z,44.60
2022-08-11T23:52:10.606Z,44.60
2022-08-11T23:57:27.511Z,44.80
